Main page
METAR-TAF:

METAR-TAF

Airports :

Evelyn Sharp Field

Ord, Nebraska, United States

latitude: 41-37-27N, longitude: 098-57-09W, elevation: 2070 ft

Current weather observation

The report was made 1 hour and 14 minutes ago, at 00:53 UTC
Wind 8 mph from the Northeast
Temperature 36°F
Humidity 75%
Pressure 30.24 in. Hg
Visibility: 8 miles
Broken clouds at a height of 6000 ft
Broken clouds at a height of 9500 ft
light snow

METAR: KODX 250053Z AUTO 04007KT 8SM -SN BKN060 BKN095 02/M02 A3024 RMK AO2 RAB41E43SNB43 SLPNO P0000 T00221022

Time: 20:07 (02:07 UTC)


TAF: missing

Weather observations and forecasts of more than 4000 airports (METAR and TAF reports).

The available stations are represented by yellow and red dots on the map.

Hover mouse over dot to see the name of the station.

Then click to see weather observations and forecasts.

To change the map : click on the green buttons with a black cross to zoom in, on the green button with a dash to zoom out, or on the green arrows for adjacent maps.


METAR-TAF: